Time;durP1;ratioP1;P1;durP2;ratioP2;P2;SDS_P1;SDS_P2;PMS_P1;PMS_P2;Temp;Humidity;BMP_temperature;BMP_pressure;BME280_temperature;BME280_humidity;BME280_pressure;Samples;Min_cycle;Max_cycle;Signal;HPM_P1;HPM_P2
2021/07/17 00:02:20;;;;;;;11.17;8.17;;;20.30;99.90;;;;;;5071641;28;20578;-73
2021/07/17 00:05:07;;;;;;;12.17;9.10;;;20.30;99.90;;;;;;5069201;28;21077;-73
2021/07/17 00:07:53;;;;;;;13.33;9.50;;;20.30;99.90;;;;;;5064963;28;20497;-73
2021/07/17 00:10:46;;;;;;;12.03;8.83;;;20.30;99.90;;;;;;5068204;28;20445;-73
2021/07/17 00:13:33;;;;;;;14.13;10.40;;;20.30;99.90;;;;;;5070327;28;20581;-73
2021/07/17 00:16:26;;;;;;;11.23;9.97;;;20.30;99.90;;;;;;5068997;28;21008;-73
2021/07/17 00:19:12;;;;;;;15.17;9.83;;;20.30;99.90;;;;;;5067689;28;20504;-73
2021/07/17 00:21:57;;;;;;;10.93;9.13;;;20.30;99.90;;;;;;5072811;28;20786;-73
2021/07/17 00:24:43;;;;;;;11.97;9.07;;;20.30;99.90;;;;;;5071427;28;20488;-73
2021/07/17 00:27:28;;;;;;;19.70;9.63;;;20.30;99.90;;;;;;5070826;28;20509;-73
2021/07/17 00:30:17;;;;;;;16.37;10.47;;;20.30;99.90;;;;;;5066944;28;20496;-73
2021/07/17 00:33:03;;;;;;;12.27;9.83;;;20.30;99.90;;;;;;5072371;28;20408;-73
2021/07/17 00:35:48;;;;;;;12.77;9.50;;;20.30;99.90;;;;;;5067189;28;20463;-73
2021/07/17 00:38:35;;;;;;;14.83;10.10;;;20.30;99.90;;;;;;5066751;28;20555;-73
2021/07/17 00:41:20;;;;;;;12.53;9.87;;;20.30;99.90;;;;;;5068165;28;21071;-73
2021/07/17 00:44:08;;;;;;;15.73;10.97;;;20.30;99.90;;;;;;5067054;28;20934;-73
2021/07/17 00:46:56;;;;;;;14.10;10.60;;;20.30;99.90;;;;;;5065595;28;20442;-73
2021/07/17 00:49:42;;;;;;;13.20;9.70;;;20.20;99.90;;;;;;5065322;28;20474;-73
2021/07/17 00:52:28;;;;;;;17.40;9.77;;;20.20;99.90;;;;;;5068992;28;20466;-73
2021/07/17 00:55:15;;;;;;;18.67;9.73;;;20.20;99.90;;;;;;5071196;28;20590;-73
2021/07/17 00:58:03;;;;;;;14.17;9.60;;;20.20;99.90;;;;;;5071763;28;20549;-73
2021/07/17 01:00:50;;;;;;;10.70;9.60;;;20.20;99.90;;;;;;5065253;28;20418;-73
2021/07/17 01:03:38;;;;;;;12.30;10.57;;;20.20;99.90;;;;;;5070354;28;20444;-73
2021/07/17 01:06:23;;;;;;;18.67;10.57;;;20.20;99.90;;;;;;5068092;28;20879;-73
2021/07/17 01:09:09;;;;;;;14.03;10.70;;;20.20;99.90;;;;;;5069622;28;22771;-73
2021/07/17 01:11:56;;;;;;;14.07;9.63;;;20.20;99.90;;;;;;5071806;28;20456;-73
2021/07/17 01:14:42;;;;;;;13.20;9.53;;;20.20;99.90;;;;;;5070718;28;20461;-73
2021/07/17 01:17:28;;;;;;;16.87;9.20;;;20.20;99.90;;;;;;5067955;28;20593;-73
2021/07/17 01:20:17;;;;;;;22.50;9.77;;;20.20;99.90;;;;;;5067963;28;20425;-73
2021/07/17 01:23:05;;;;;;;14.57;10.70;;;20.10;99.90;;;;;;5060659;28;20414;-73
2021/07/17 01:25:50;;;;;;;16.00;11.10;;;20.10;99.90;;;;;;5070507;28;20587;-73
2021/07/17 01:28:37;;;;;;;12.90;9.77;;;20.10;99.90;;;;;;5062472;28;20432;-73
2021/07/17 01:31:24;;;;;;;19.87;11.80;;;20.10;99.90;;;;;;5068658;28;20438;-73
2021/07/17 01:34:09;;;;;;;17.67;12.50;;;20.20;99.90;;;;;;5069455;28;20496;-73
2021/07/17 01:36:55;;;;;;;20.97;11.70;;;20.10;99.90;;;;;;5068650;28;20520;-73
2021/07/17 01:39:42;;;;;;;20.70;11.07;;;20.10;99.90;;;;;;5068356;28;20422;-73
2021/07/17 01:42:29;;;;;;;21.57;12.40;;;20.10;99.90;;;;;;5067456;28;20514;-73
2021/07/17 01:45:23;;;;;;;22.67;13.10;;;20.10;99.90;;;;;;5071395;28;20789;-73
2021/07/17 01:48:11;;;;;;;20.00;10.93;;;20.20;99.90;;;;;;5069608;28;20555;-73
2021/07/17 01:50:57;;;;;;;19.97;12.23;;;20.20;99.90;;;;;;5063903;28;20483;-73
2021/07/17 01:53:42;;;;;;;22.80;13.50;;;20.20;99.90;;;;;;5063937;28;20791;-73
2021/07/17 01:56:29;;;;;;;19.47;12.17;;;20.10;99.90;;;;;;5068226;28;20508;-73
2021/07/17 01:59:15;;;;;;;16.67;12.43;;;20.00;99.90;;;;;;5068280;28;20410;-73
2021/07/17 02:02:00;;;;;;;18.73;13.07;;;20.00;99.90;;;;;;5066646;28;20556;-73
2021/07/17 02:04:46;;;;;;;22.90;12.77;;;20.00;99.90;;;;;;5064100;28;20485;-73
2021/07/17 02:07:32;;;;;;;20.67;13.13;;;20.00;99.90;;;;;;5070762;28;20400;-73
2021/07/17 02:10:20;;;;;;;21.90;13.00;;;19.90;99.90;;;;;;5065481;28;20464;-73
2021/07/17 02:13:09;;;;;;;14.80;11.53;;;20.00;99.90;;;;;;5068618;28;20559;-73
2021/07/17 02:15:56;;;;;;;16.63;11.20;;;20.00;99.90;;;;;;5064912;28;20461;-73
2021/07/17 02:18:44;;;;;;;18.97;12.77;;;20.00;99.90;;;;;;5068921;28;20544;-73
2021/07/17 02:21:30;;;;;;;24.50;13.20;;;20.00;99.90;;;;;;5066770;28;20527;-73
2021/07/17 02:24:16;;;;;;;17.03;12.20;;;20.00;99.90;;;;;;5066134;28;20438;-73
2021/07/17 02:27:02;;;;;;;23.10;12.90;;;20.00;99.90;;;;;;5070871;28;20409;-73
2021/07/17 02:29:48;;;;;;;21.27;13.53;;;20.00;99.90;;;;;;5063885;28;20556;-73
2021/07/17 02:32:34;;;;;;;28.30;13.80;;;20.00;99.90;;;;;;5069938;28;20885;-73
2021/07/17 02:35:20;;;;;;;20.20;13.23;;;19.90;99.90;;;;;;5069202;28;20492;-74
2021/07/17 02:38:06;;;;;;;21.03;12.03;;;20.00;99.90;;;;;;5064370;28;20552;-73
2021/07/17 02:40:51;;;;;;;25.60;12.77;;;19.90;99.90;;;;;;5072735;28;20489;-73
2021/07/17 02:43:37;;;;;;;22.87;12.97;;;19.90;99.90;;;;;;5057110;28;20428;-73
2021/07/17 02:46:24;;;;;;;19.07;12.27;;;19.90;99.90;;;;;;5070456;28;20417;-73
2021/07/17 02:49:10;;;;;;;17.47;13.20;;;20.00;99.90;;;;;;5067908;28;20971;-73
2021/07/17 02:51:56;;;;;;;24.90;13.27;;;20.00;99.90;;;;;;5062578;28;21007;-73
2021/07/17 02:54:41;;;;;;;22.03;14.70;;;20.00;99.90;;;;;;5063359;28;20819;-73
2021/07/17 02:57:27;;;;;;;25.33;12.70;;;20.00;99.90;;;;;;5069900;28;20660;-73
2021/07/17 03:00:14;;;;;;;21.00;13.10;;;20.00;99.90;;;;;;5067271;28;20531;-73
2021/07/17 03:03:01;;;;;;;28.10;13.47;;;20.00;99.90;;;;;;5062048;28;20499;-73
2021/07/17 03:05:47;;;;;;;24.43;13.60;;;20.00;99.90;;;;;;5067296;28;20458;-73
2021/07/17 03:08:33;;;;;;;24.70;12.50;;;20.00;99.90;;;;;;5064353;28;20427;-73
2021/07/17 03:11:18;;;;;;;27.17;13.87;;;20.00;99.90;;;;;;5075051;28;20652;-73
2021/07/17 03:14:04;;;;;;;17.97;12.20;;;20.00;99.90;;;;;;5074288;28;20425;-73
2021/07/17 03:16:50;;;;;;;20.97;13.83;;;20.00;99.90;;;;;;5071644;28;20455;-73
2021/07/17 03:19:37;;;;;;;23.77;12.60;;;20.00;99.90;;;;;;5067433;28;20442;-73
2021/07/17 03:22:23;;;;;;;27.60;12.80;;;20.00;99.90;;;;;;5062768;28;20475;-73
2021/07/17 03:25:10;;;;;;;21.93;13.00;;;20.00;99.90;;;;;;5072197;28;20480;-73
2021/07/17 03:27:55;;;;;;;24.87;13.03;;;20.00;99.90;;;;;;5068367;28;20472;-73
2021/07/17 03:30:41;;;;;;;23.87;13.70;;;20.00;99.90;;;;;;5066792;28;20456;-73
2021/07/17 03:33:27;;;;;;;20.67;13.07;;;20.00;99.90;;;;;;5073836;28;20439;-73
2021/07/17 03:36:14;;;;;;;22.23;12.90;;;20.00;99.90;;;;;;5064797;28;20477;-73
2021/07/17 03:39:00;;;;;;;18.73;11.40;;;20.00;99.90;;;;;;5072936;28;20457;-73
2021/07/17 03:41:45;;;;;;;20.70;12.17;;;20.00;99.90;;;;;;5066329;28;20803;-73
2021/07/17 03:44:31;;;;;;;25.87;13.70;;;20.00;99.90;;;;;;5069678;28;20474;-73
2021/07/17 03:47:17;;;;;;;25.83;12.63;;;20.00;99.90;;;;;;5067888;28;20494;-73
2021/07/17 03:50:03;;;;;;;21.23;12.87;;;19.90;99.90;;;;;;5072848;28;20482;-73
2021/07/17 03:52:50;;;;;;;21.53;13.43;;;19.90;99.90;;;;;;5066687;28;20806;-73
2021/07/17 03:55:36;;;;;;;26.10;13.13;;;19.90;99.90;;;;;;5064847;28;20831;-73
2021/07/17 03:58:22;;;;;;;19.97;12.97;;;19.90;99.90;;;;;;5071302;28;20454;-73
2021/07/17 04:01:08;;;;;;;22.07;13.27;;;19.80;99.90;;;;;;5068812;28;20420;-73
2021/07/17 04:03:53;;;;;;;27.10;14.57;;;19.80;99.90;;;;;;5061459;28;20520;-73
2021/07/17 04:06:40;;;;;;;20.47;12.40;;;19.80;99.90;;;;;;5067197;28;20446;-73
2021/07/17 04:09:27;;;;;;;22.67;13.33;;;19.80;99.90;;;;;;5072903;28;20493;-73
2021/07/17 04:12:12;;;;;;;30.30;13.53;;;19.90;99.90;;;;;;5069974;28;20496;-73
2021/07/17 04:14:58;;;;;;;25.03;12.80;;;19.90;99.90;;;;;;5071506;28;20535;-73
2021/07/17 04:17:44;;;;;;;24.47;14.10;;;20.00;99.90;;;;;;5067925;28;20498;-73
2021/07/17 04:20:30;;;;;;;19.67;12.87;;;20.00;99.90;;;;;;5072174;28;20845;-73
2021/07/17 04:23:16;;;;;;;19.80;13.30;;;20.00;99.90;;;;;;5071284;28;20531;-73
2021/07/17 04:26:04;;;;;;;22.80;13.73;;;19.90;99.90;;;;;;5067914;28;20855;-73
2021/07/17 04:28:49;;;;;;;22.37;13.70;;;19.90;99.90;;;;;;5069854;28;20798;-73
2021/07/17 04:31:35;;;;;;;31.63;13.30;;;20.00;99.90;;;;;;5070418;28;20470;-73
2021/07/17 04:34:21;;;;;;;18.87;11.77;;;20.00;99.90;;;;;;5071039;28;20449;-73
2021/07/17 04:37:06;;;;;;;17.17;12.23;;;20.00;99.90;;;;;;5071323;28;20451;-73
2021/07/17 04:39:52;;;;;;;20.70;14.37;;;20.00;99.90;;;;;;5068955;28;20443;-73
2021/07/17 04:42:39;;;;;;;24.10;12.47;;;20.10;99.90;;;;;;5065572;28;20430;-73
2021/07/17 04:45:25;;;;;;;18.37;12.17;;;20.00;99.90;;;;;;5070232;28;20542;-73
2021/07/17 04:48:11;;;;;;;18.30;11.40;;;20.00;99.90;;;;;;5068771;28;20413;-73
2021/07/17 04:50:56;;;;;;;20.10;12.70;;;20.00;99.90;;;;;;5064848;28;20612;-73
2021/07/17 04:53:42;;;;;;;22.57;13.37;;;20.00;99.90;;;;;;5056545;28;20425;-73
2021/07/17 04:56:28;;;;;;;20.60;13.23;;;20.00;99.90;;;;;;5068159;28;20428;-73
2021/07/17 04:59:15;;;;;;;17.33;13.30;;;20.00;99.90;;;;;;5066235;28;20776;-73
2021/07/17 05:02:01;;;;;;;18.90;11.97;;;20.00;99.90;;;;;;5069397;28;20497;-73
2021/07/17 05:04:46;;;;;;;13.10;11.63;;;20.00;99.90;;;;;;5067392;28;21018;-73
2021/07/17 05:07:32;;;;;;;15.90;10.97;;;20.10;99.90;;;;;;5068731;28;20421;-73
2021/07/17 05:10:19;;;;;;;15.27;12.10;;;20.10;99.90;;;;;;5068549;28;21070;-73
2021/07/17 05:13:12;;;;;;;22.90;13.40;;;20.10;99.90;;;;;;5058654;28;20942;-73
2021/07/17 05:15:59;;;;;;;21.30;12.43;;;20.10;99.90;;;;;;5070860;28;20495;-73
2021/07/17 05:18:45;;;;;;;18.90;12.50;;;20.00;99.90;;;;;;5064843;28;20472;-73
2021/07/17 05:21:31;;;;;;;17.80;12.00;;;20.10;99.90;;;;;;5070835;28;20508;-73
2021/07/17 05:24:16;;;;;;;16.30;11.90;;;20.00;99.90;;;;;;5067331;28;20432;-73
2021/07/17 05:27:02;;;;;;;16.23;11.60;;;20.10;99.90;;;;;;5064430;28;20421;-73
2021/07/17 05:29:48;;;;;;;22.57;11.70;;;20.20;99.90;;;;;;5064940;28;20926;-73
2021/07/17 05:32:35;;;;;;;18.23;12.27;;;20.20;99.90;;;;;;5068138;28;20443;-73
2021/07/17 05:35:21;;;;;;;22.83;12.07;;;20.20;99.90;;;;;;5068691;28;20442;-73
2021/07/17 05:38:07;;;;;;;15.50;10.77;;;20.20;99.90;;;;;;5070123;28;20532;-73
2021/07/17 05:40:53;;;;;;;16.37;11.07;;;20.30;99.90;;;;;;5068901;28;20421;-73
2021/07/17 05:43:39;;;;;;;17.80;10.40;;;20.30;99.90;;;;;;5064920;28;20460;-73
2021/07/17 05:46:24;;;;;;;20.23;11.53;;;20.30;99.90;;;;;;5071214;28;20420;-73
2021/07/17 05:49:11;;;;;;;17.13;12.50;;;20.30;99.90;;;;;;5070036;28;20426;-73
2021/07/17 05:51:57;;;;;;;17.57;12.00;;;20.30;99.90;;;;;;5069616;28;20461;-73
2021/07/17 05:54:42;;;;;;;15.93;11.53;;;20.30;99.90;;;;;;5064963;28;20544;-73
2021/07/17 05:57:28;;;;;;;20.80;12.47;;;20.30;99.90;;;;;;5070455;28;21066;-73
2021/07/17 06:00:19;;;;;;;23.00;11.53;;;20.30;99.90;;;;;;5068734;28;21115;-73
2021/07/17 06:03:04;;;;;;;18.00;11.40;;;20.40;99.90;;;;;;5063163;28;20423;-74
2021/07/17 06:05:51;;;;;;;16.20;12.37;;;20.40;99.90;;;;;;5068595;28;20582;-73
2021/07/17 06:08:37;;;;;;;22.20;12.30;;;20.40;99.90;;;;;;5066110;28;20440;-73
2021/07/17 06:11:23;;;;;;;18.50;10.93;;;20.50;99.90;;;;;;5065274;28;20552;-73
2021/07/17 06:14:09;;;;;;;16.60;11.13;;;20.50;99.90;;;;;;5066064;28;20935;-73
2021/07/17 06:16:54;;;;;;;16.40;11.03;;;20.50;99.90;;;;;;5069652;28;21086;-73
2021/07/17 06:19:41;;;;;;;16.93;10.97;;;20.50;99.90;;;;;;5056295;28;20449;-73
2021/07/17 06:22:28;;;;;;;15.80;10.53;;;20.50;99.90;;;;;;5070112;28;20948;-73
2021/07/17 06:25:13;;;;;;;21.63;11.67;;;20.50;99.90;;;;;;5069158;28;20579;-73
2021/07/17 06:27:59;;;;;;;15.73;11.37;;;20.50;99.90;;;;;;5063350;28;20454;-73
2021/07/17 06:30:44;;;;;;;13.33;10.00;;;20.50;99.90;;;;;;5063266;28;20961;-73
2021/07/17 06:33:30;;;;;;;14.47;9.97;;;20.50;99.90;;;;;;5068556;28;20428;-73
2021/07/17 06:36:16;;;;;;;17.30;10.50;;;20.50;99.90;;;;;;5067068;28;20436;-73
2021/07/17 06:39:03;;;;;;;15.00;10.47;;;20.60;99.90;;;;;;5065407;28;20604;-73
2021/07/17 06:41:48;;;;;;;15.73;10.30;;;20.70;99.90;;;;;;5071523;28;20829;-73
2021/07/17 06:44:34;;;;;;;14.30;9.33;;;20.70;99.90;;;;;;5070997;28;20470;-73
2021/07/17 06:47:19;;;;;;;16.53;10.73;;;20.70;99.90;;;;;;5073350;28;20552;-73
2021/07/17 06:50:07;;;;;;;17.40;9.93;;;20.80;99.90;;;;;;5070429;28;20561;-74
2021/07/17 06:52:52;;;;;;;15.23;10.43;;;20.70;99.90;;;;;;5067570;28;20440;-73
2021/07/17 06:55:39;;;;;;;14.70;10.83;;;20.70;99.90;;;;;;5071693;28;20485;-73
2021/07/17 06:58:25;;;;;;;14.10;10.30;;;20.60;99.90;;;;;;5068445;28;20520;-73
2021/07/17 07:01:11;;;;;;;17.47;10.63;;;20.60;99.90;;;;;;5070071;28;21021;-73
2021/07/17 07:03:57;;;;;;;15.57;10.30;;;20.60;99.90;;;;;;5069642;28;20514;-73
2021/07/17 07:06:43;;;;;;;20.53;10.70;;;20.60;99.90;;;;;;5066192;28;20458;-73
2021/07/17 07:09:29;;;;;;;19.00;11.10;;;20.60;99.90;;;;;;5073328;28;20437;-73
2021/07/17 07:12:16;;;;;;;14.00;10.47;;;20.60;99.90;;;;;;5071414;28;20477;-73
2021/07/17 07:15:01;;;;;;;15.07;10.47;;;20.60;99.90;;;;;;5072998;28;20532;-73
2021/07/17 07:17:47;;;;;;;14.07;10.67;;;20.60;99.90;;;;;;5065648;28;20428;-73
2021/07/17 07:20:33;;;;;;;19.60;10.67;;;20.50;99.90;;;;;;5071089;28;20424;-73
2021/07/17 07:23:19;;;;;;;10.63;9.50;;;20.50;99.90;;;;;;5072070;28;20442;-73
2021/07/17 07:26:04;;;;;;;11.57;10.13;;;20.50;99.90;;;;;;5067521;28;20481;-73
2021/07/17 07:28:56;;;;;;;14.00;9.53;;;20.60;99.90;;;;;;5072281;28;20439;-73
2021/07/17 07:31:41;;;;;;;16.50;10.37;;;20.60;99.90;;;;;;5070444;28;20453;-73
2021/07/17 07:34:27;;;;;;;16.80;11.07;;;20.60;99.90;;;;;;5070394;28;20456;-73
2021/07/17 07:37:13;;;;;;;11.33;9.97;;;20.60;99.90;;;;;;5070721;28;20813;-73
2021/07/17 07:39:58;;;;;;;13.70;9.60;;;20.70;99.90;;;;;;5071580;28;20462;-73
2021/07/17 07:42:44;;;;;;;14.27;10.23;;;20.70;99.90;;;;;;5070676;28;20413;-73
2021/07/17 07:45:31;;;;;;;16.63;10.10;;;20.70;99.90;;;;;;5064814;28;20458;-73
2021/07/17 07:48:17;;;;;;;16.83;10.77;;;20.60;99.90;;;;;;5073024;28;20524;-74
2021/07/17 07:51:03;;;;;;;16.07;10.40;;;20.70;99.90;;;;;;5073093;28;20443;-74
2021/07/17 07:53:48;;;;;;;13.93;10.63;;;20.70;99.90;;;;;;5065331;28;20536;-74
2021/07/17 07:56:34;;;;;;;16.70;11.20;;;20.70;99.90;;;;;;5072433;28;20420;-74
2021/07/17 07:59:20;;;;;;;17.90;9.90;;;20.70;99.90;;;;;;5064678;28;20824;-73
2021/07/17 08:02:07;;;;;;;19.57;11.93;;;20.70;99.90;;;;;;5071289;28;20420;-73
2021/07/17 08:04:52;;;;;;;15.77;10.07;;;20.70;99.90;;;;;;5069017;28;20562;-74
2021/07/17 08:07:38;;;;;;;12.87;10.10;;;20.70;99.90;;;;;;5073383;28;20932;-73
2021/07/17 08:10:24;;;;;;;19.33;11.20;;;20.80;99.90;;;;;;5070284;28;20421;-73
2021/07/17 08:13:10;;;;;;;14.20;10.13;;;20.90;99.90;;;;;;5069649;28;20478;-72
2021/07/17 08:15:58;;;;;;;13.97;10.80;;;20.90;99.90;;;;;;5077326;22;20621;-72
2021/07/17 08:18:45;;;;;;;12.03;9.53;;;20.80;99.90;;;;;;5014884;28;20426;-73
2021/07/17 08:21:30;;;;;;;14.77;11.50;;;20.80;99.90;;;;;;5025468;28;20460;-71
2021/07/17 08:24:16;;;;;;;15.00;9.80;;;20.90;99.90;;;;;;5029688;28;20455;-73
2021/07/17 08:27:01;;;;;;;16.13;10.63;;;20.80;99.90;;;;;;5025004;28;20414;-73
2021/07/17 08:29:47;;;;;;;16.50;10.83;;;20.90;99.90;;;;;;5020852;28;20785;-73
2021/07/17 08:32:33;;;;;;;18.87;11.37;;;20.90;99.90;;;;;;5015072;28;20829;-70
2021/07/17 08:35:20;;;;;;;16.30;10.73;;;20.90;99.90;;;;;;5014002;28;20520;-72
2021/07/17 08:38:05;;;;;;;15.60;10.70;;;20.90;99.90;;;;;;5019998;28;20448;-72
2021/07/17 08:40:53;;;;;;;12.07;9.70;;;21.00;99.90;;;;;;5003995;28;20474;-72
2021/07/17 08:43:39;;;;;;;15.40;10.70;;;21.00;99.90;;;;;;5016647;28;20806;-71
2021/07/17 08:46:25;;;;;;;19.80;12.10;;;21.00;99.90;;;;;;5013758;28;20479;-74
2021/07/17 08:49:11;;;;;;;18.20;11.07;;;21.00;99.90;;;;;;5016329;28;20450;-73
2021/07/17 08:52:00;;;;;;;17.37;12.10;;;21.00;99.90;;;;;;5023168;28;20574;-73
2021/07/17 08:54:45;;;;;;;27.90;13.20;;;20.90;99.90;;;;;;5014698;28;20449;-72
2021/07/17 08:57:33;;;;;;;16.43;11.00;;;20.90;99.90;;;;;;5017616;28;20459;-74
2021/07/17 09:00:22;;;;;;;23.67;11.23;;;20.80;99.90;;;;;;5018655;28;20438;-72
2021/07/17 09:03:10;;;;;;;13.07;10.90;;;20.90;99.90;;;;;;5009736;28;20597;-74
2021/07/17 09:05:56;;;;;;;15.93;11.50;;;21.00;99.90;;;;;;5013858;28;20421;-74
2021/07/17 09:08:44;;;;;;;16.97;11.70;;;21.10;99.90;;;;;;5013714;28;20914;-74
2021/07/17 09:11:38;;;;;;;22.20;11.47;;;21.20;99.90;;;;;;5017890;28;20441;-74
2021/07/17 09:14:35;;;;;;;20.30;11.53;;;21.30;99.90;;;;;;5022659;28;20448;-73
2021/07/17 09:17:25;;;;;;;15.17;11.93;;;21.20;99.90;;;;;;5013978;28;20473;-74
2021/07/17 09:20:11;;;;;;;15.90;11.47;;;21.10;99.90;;;;;;5025230;28;21019;-73
2021/07/17 09:23:01;;;;;;;21.43;12.10;;;21.10;99.90;;;;;;5017120;28;20427;-72
2021/07/17 09:25:48;;;;;;;19.20;12.00;;;21.20;99.90;;;;;;5017509;28;20465;-72
2021/07/17 09:28:34;;;;;;;21.83;12.47;;;21.10;99.90;;;;;;5021354;28;20491;-73
2021/07/17 09:31:20;;;;;;;17.40;12.50;;;21.10;99.90;;;;;;5014625;28;20445;-73
2021/07/17 09:34:07;;;;;;;15.60;13.10;;;21.00;99.90;;;;;;5012714;28;21023;-73
2021/07/17 09:36:56;;;;;;;16.30;11.83;;;21.10;99.90;;;;;;5012159;28;20458;-72
2021/07/17 09:39:47;;;;;;;21.10;11.97;;;21.10;99.90;;;;;;5016922;28;20563;-72
2021/07/17 09:42:43;;;;;;;15.67;12.13;;;21.30;99.90;;;;;;5023737;28;20970;-72
2021/07/17 09:45:36;;;;;;;18.67;12.90;;;21.50;99.90;;;;;;5032081;28;20533;-72
2021/07/17 09:48:30;;;;;;;15.17;11.90;;;21.50;99.90;;;;;;5032161;28;20421;-72
2021/07/17 09:51:21;;;;;;;21.73;12.53;;;21.50;99.90;;;;;;5032148;28;20466;-72
2021/07/17 09:54:07;;;;;;;16.67;11.97;;;21.50;99.90;;;;;;5031933;28;20401;-72
2021/07/17 09:57:01;;;;;;;12.77;11.43;;;21.50;99.90;;;;;;5032019;28;20434;-71
2021/07/17 10:02:40;;;;;;;18.57;12.10;;;21.40;99.90;;;;;;5088235;27;20953;-74
2021/07/17 10:05:38;;;;;;;17.90;12.50;;;21.40;99.90;;;;;;5079958;28;20465;-74
2021/07/17 10:08:35;;;;;;;16.27;13.83;;;21.50;99.90;;;;;;5076388;28;20788;-75
2021/07/17 10:11:23;;;;;;;20.03;11.60;;;21.50;99.90;;;;;;5086900;28;20415;-74
2021/07/17 10:14:17;;;;;;;18.13;11.27;;;21.60;99.90;;;;;;5074672;28;20447;-74
2021/07/17 10:17:08;;;;;;;19.60;11.70;;;21.70;99.90;;;;;;5075086;28;20463;-74
2021/07/17 10:19:56;;;;;;;16.10;11.40;;;21.60;99.90;;;;;;5075273;28;20955;-75
2021/07/17 10:22:42;;;;;;;14.10;11.80;;;21.60;99.90;;;;;;5078915;28;20429;-75
2021/07/17 10:25:28;;;;;;;15.50;11.70;;;21.60;99.90;;;;;;5079326;28;20454;-76
2021/07/17 10:28:14;;;;;;;15.60;11.90;;;21.60;99.90;;;;;;5085684;28;20535;-75
2021/07/17 10:31:00;;;;;;;16.73;11.10;;;21.60;99.90;;;;;;5076057;28;20439;-75
2021/07/17 10:33:46;;;;;;;18.40;11.27;;;21.70;99.90;;;;;;5076761;28;21113;-75
2021/07/17 10:36:37;;;;;;;15.77;10.73;;;21.70;99.90;;;;;;5085953;28;20421;-76
2021/07/17 10:39:25;;;;;;;14.23;11.00;;;21.60;99.90;;;;;;5081972;28;21794;-74
2021/07/17 10:42:14;;;;;;;23.13;11.50;;;21.70;99.90;;;;;;5076270;28;20476;-73
2021/07/17 10:45:00;;;;;;;13.70;10.97;;;21.70;99.90;;;;;;5078937;28;20429;-75
2021/07/17 10:47:45;;;;;;;13.93;10.43;;;21.70;99.90;;;;;;5087265;28;20429;-75
2021/07/17 10:50:33;;;;;;;15.20;11.23;;;21.70;99.90;;;;;;5083670;28;20971;-74
2021/07/17 10:53:47;;;;;;;12.67;9.60;;;21.80;99.90;;;;;;5086067;28;20424;-75
2021/07/17 10:56:54;;;;;;;12.57;10.63;;;21.70;99.90;;;;;;5079912;28;20823;-75
2021/07/17 10:59:47;;;;;;;12.60;10.63;;;21.70;99.90;;;;;;5076282;28;20410;-76
2021/07/17 11:02:33;;;;;;;13.37;10.43;;;21.80;99.90;;;;;;5070531;28;21107;-75
2021/07/17 11:05:35;;;;;;;15.50;10.43;;;21.70;99.90;;;;;;5071718;28;20427;-75
2021/07/17 11:08:32;;;;;;;18.20;11.40;;;21.70;99.90;;;;;;5087997;28;20488;-75
2021/07/17 11:11:38;;;;;;;16.83;11.67;;;21.70;99.90;;;;;;5081319;28;20488;-74
2021/07/17 11:14:25;;;;;;;14.10;10.73;;;21.80;99.90;;;;;;5074063;28;20570;-73
2021/07/17 11:17:11;;;;;;;15.67;11.40;;;21.80;99.90;;;;;;5070997;28;20617;-75
2021/07/17 11:19:57;;;;;;;20.57;11.63;;;21.90;99.90;;;;;;5072332;28;20421;-75
2021/07/17 11:22:42;;;;;;;17.90;11.03;;;22.00;99.90;;;;;;5074200;28;20512;-76
2021/07/17 11:25:28;;;;;;;15.93;10.80;;;22.10;99.90;;;;;;5068734;28;20818;-75
2021/07/17 11:29:02;;;;;;;18.63;10.97;;;22.30;99.90;;;;;;5068062;28;21073;-75
2021/07/17 11:31:53;;;;;;;14.20;10.77;;;22.30;99.90;;;;;;5056652;28;20484;-74
2021/07/17 11:34:44;;;;;;;14.17;11.20;;;22.40;99.90;;;;;;5065847;28;21010;-76
2021/07/17 11:37:29;;;;;;;12.60;10.97;;;22.40;99.90;;;;;;5066673;28;20594;-75
2021/07/17 11:40:16;;;;;;;15.40;11.47;;;22.40;99.90;;;;;;5077582;28;20398;-75
2021/07/17 11:43:04;;;;;;;12.43;10.97;;;22.50;99.90;;;;;;5066393;28;20495;-75
2021/07/17 11:45:51;;;;;;;13.80;10.93;;;22.60;99.90;;;;;;5059688;28;20468;-75
2021/07/17 11:48:36;;;;;;;16.97;11.33;;;22.60;99.90;;;;;;5057600;28;20451;-74
2021/07/17 11:51:22;;;;;;;16.10;10.70;;;22.60;99.90;;;;;;5072217;28;20427;-75
2021/07/17 11:54:08;;;;;;;13.30;11.00;;;22.60;99.90;;;;;;5073447;28;21018;-75
2021/07/17 11:57:12;;;;;;;14.90;12.40;;;22.70;99.90;;;;;;5071814;28;20441;-75
2021/07/17 12:00:04;;;;;;;20.57;11.33;;;22.70;99.90;;;;;;5064795;28;20455;-75
2021/07/17 12:02:54;;;;;;;16.40;11.63;;;22.80;99.90;;;;;;5073379;28;20459;-76
2021/07/17 12:05:40;;;;;;;19.83;11.30;;;22.80;99.90;;;;;;5065351;28;20973;-75
2021/07/17 12:08:25;;;;;;;10.70;9.60;;;22.90;99.90;;;;;;5071667;28;20862;-75
2021/07/17 12:11:15;;;;;;;12.23;10.07;;;23.00;99.90;;;;;;5065326;28;20801;-75
2021/07/17 12:14:19;;;;;;;17.50;11.03;;;22.90;99.90;;;;;;5073530;28;20456;-75
2021/07/17 12:17:04;;;;;;;14.93;11.30;;;23.00;99.90;;;;;;5071840;28;20541;-75
2021/07/17 12:20:11;;;;;;;11.70;10.47;;;23.10;99.90;;;;;;5067130;28;20419;-75
2021/07/17 12:23:03;;;;;;;17.10;10.80;;;23.20;99.90;;;;;;5059990;28;20826;-75
2021/07/17 12:25:52;;;;;;;13.27;10.97;;;23.50;99.90;;;;;;5062669;28;20473;-76
2021/07/17 12:28:40;;;;;;;14.47;10.80;;;23.70;99.90;;;;;;5063496;28;20434;-76
2021/07/17 12:31:26;;;;;;;14.63;12.50;;;23.80;99.90;;;;;;5055334;28;20439;-75
2021/07/17 12:34:11;;;;;;;16.00;10.93;;;23.90;99.90;;;;;;5064227;28;20436;-74
2021/07/17 12:36:58;;;;;;;15.70;11.20;;;24.00;99.90;;;;;;5071148;28;20855;-75
2021/07/17 12:39:44;;;;;;;17.07;12.10;;;24.10;99.90;;;;;;5072254;28;20486;-75
2021/07/17 12:42:32;;;;;;;14.43;10.93;;;24.10;99.90;;;;;;5072368;28;20480;-75
2021/07/17 12:45:20;;;;;;;15.33;10.97;;;24.30;99.90;;;;;;5071928;28;20428;-75
2021/07/17 12:48:07;;;;;;;13.80;11.70;;;24.50;99.90;;;;;;5072405;28;20530;-75
2021/07/17 12:51:04;;;;;;;12.57;10.47;;;24.50;99.90;;;;;;5072531;28;20506;-75
2021/07/17 12:53:53;;;;;;;17.67;11.87;;;24.50;99.90;;;;;;5072056;28;20479;-75
2021/07/17 12:56:42;;;;;;;18.97;11.20;;;24.50;99.90;;;;;;5071857;28;20803;-75
2021/07/17 12:59:33;;;;;;;12.57;11.20;;;24.40;99.90;;;;;;5072182;28;20431;-75
2021/07/17 13:02:19;;;;;;;15.57;11.10;;;24.30;99.90;;;;;;5071835;28;20469;-75
2021/07/17 13:05:05;;;;;;;15.70;12.00;;;24.30;99.90;;;;;;5071273;28;20990;-74
2021/07/17 13:08:02;;;;;;;13.33;10.67;;;24.40;99.90;;;;;;5071973;28;20803;-75
2021/07/17 13:10:50;;;;;;;17.27;12.10;;;24.60;99.90;;;;;;5071626;28;20479;-75
2021/07/17 13:13:37;;;;;;;13.80;11.50;;;24.70;99.90;;;;;;5051858;28;20409;-75
2021/07/17 13:16:30;;;;;;;19.00;12.77;;;24.80;99.90;;;;;;5054973;28;20480;-72
2021/07/17 13:19:16;;;;;;;14.10;11.43;;;24.60;99.90;;;;;;5068716;28;20536;-71
2021/07/17 13:22:04;;;;;;;17.13;12.07;;;24.50;99.90;;;;;;5066381;28;20588;-72
2021/07/17 13:24:50;;;;;;;15.33;12.87;;;24.40;99.90;;;;;;5069397;28;20424;-72
2021/07/17 13:27:36;;;;;;;23.10;13.60;;;24.30;99.90;;;;;;5053179;28;20496;-72
2021/07/17 13:30:30;;;;;;;16.20;13.70;;;24.40;99.90;;;;;;5064871;28;20502;-72
2021/07/17 13:33:16;;;;;;;20.37;13.60;;;24.50;99.90;;;;;;5059347;28;20630;-71
2021/07/17 13:36:07;;;;;;;19.40;14.10;;;24.50;99.90;;;;;;5044829;28;20956;-72
2021/07/17 13:39:01;;;;;;;21.93;13.70;;;24.60;99.90;;;;;;5069526;28;21071;-72
2021/07/17 13:41:47;;;;;;;18.23;14.00;;;24.70;99.90;;;;;;5058949;28;20927;-72
2021/07/17 13:44:34;;;;;;;16.27;13.80;;;24.80;99.90;;;;;;5047769;28;20525;-71
2021/07/17 13:47:20;;;;;;;21.90;13.40;;;25.30;99.90;;;;;;5066321;28;20592;-71
2021/07/17 13:50:25;;;;;;;27.63;14.40;;;25.50;99.90;;;;;;5054420;28;20443;-71
2021/07/17 13:53:12;;;;;;;22.00;13.17;;;25.50;99.90;;;;;;5065651;28;21003;-72
2021/07/17 13:56:11;;;;;;;23.13;13.63;;;25.60;99.90;;;;;;5070859;28;20849;-72
2021/07/17 13:59:00;;;;;;;17.90;12.30;;;25.70;99.90;;;;;;5070990;28;20427;-73
2021/07/17 14:01:47;;;;;;;15.10;12.63;;;25.50;99.90;;;;;;5071102;28;20555;-73
2021/07/17 14:04:33;;;;;;;15.30;12.80;;;25.50;99.90;;;;;;5070659;28;20453;-73
2021/07/17 14:07:19;;;;;;;22.63;13.50;;;25.50;99.90;;;;;;5066111;28;20819;-73
2021/07/17 14:10:05;;;;;;;16.40;12.70;;;25.50;99.90;;;;;;5073226;28;20433;-73
2021/07/17 14:12:50;;;;;;;18.13;13.40;;;25.80;99.90;;;;;;5062564;28;20845;-73
2021/07/17 14:15:36;;;;;;;19.30;13.53;;;26.20;99.90;;;;;;5082311;22;20461;-76